sensor_id;sensor_type;location;lat;lon;timestamp;pressure;altitude;pressure_sealevel;temperature;humidity
82951;BME280;72737;53.332;6.514;2023-12-20T00:01:03;101100.09;;;15.46;62.82
82951;BME280;72737;53.332;6.514;2023-12-20T00:03:28;101096.22;;;15.53;63.06
82951;BME280;72737;53.332;6.514;2023-12-20T00:05:53;101089.09;;;15.52;62.91
82951;BME280;72737;53.332;6.514;2023-12-20T00:08:19;101093.53;;;15.48;62.85
82951;BME280;72737;53.332;6.514;2023-12-20T00:10:44;101093.19;;;15.54;62.59
82951;BME280;72737;53.332;6.514;2023-12-20T00:13:10;101088.13;;;15.42;62.56
82951;BME280;72737;53.332;6.514;2023-12-20T00:15:36;101087.53;;;15.45;62.68
82951;BME280;72737;53.332;6.514;2023-12-20T00:18:01;101087.84;;;15.44;62.46
82951;BME280;72737;53.332;6.514;2023-12-20T00:20:27;101100.72;;;15.43;62.72
82951;BME280;72737;53.332;6.514;2023-12-20T00:22:56;101100.78;;;15.38;62.28
82951;BME280;72737;53.332;6.514;2023-12-20T00:25:21;101092.03;;;15.36;62.39
82951;BME280;72737;53.332;6.514;2023-12-20T00:27:48;101085.97;;;15.39;62.31
82951;BME280;72737;53.332;6.514;2023-12-20T00:30:13;101099.81;;;15.48;62.35
82951;BME280;72737;53.332;6.514;2023-12-20T00:32:38;101098.78;;;15.44;62.20
82951;BME280;72737;53.332;6.514;2023-12-20T00:35:04;101091.75;;;15.38;62.15
82951;BME280;72737;53.332;6.514;2023-12-20T00:37:30;101094.03;;;15.31;62.62
82951;BME280;72737;53.332;6.514;2023-12-20T00:39:55;101092.63;;;15.33;62.58
82951;BME280;72737;53.332;6.514;2023-12-20T00:42:20;101091.66;;;15.24;62.85
82951;BME280;72737;53.332;6.514;2023-12-20T00:44:46;101083.38;;;15.29;62.09
82951;BME280;72737;53.332;6.514;2023-12-20T00:47:11;101088.28;;;15.32;62.24
82951;BME280;72737;53.332;6.514;2023-12-20T00:49:37;101089.72;;;15.25;62.21
82951;BME280;72737;53.332;6.514;2023-12-20T00:52:02;101077.97;;;15.24;62.34
82951;BME280;72737;53.332;6.514;2023-12-20T00:54:27;101077.16;;;15.24;62.74
82951;BME280;72737;53.332;6.514;2023-12-20T00:56:53;101067.75;;;15.30;62.14
82951;BME280;72737;53.332;6.514;2023-12-20T00:59:19;101062.59;;;15.28;62.15
82951;BME280;72737;53.332;6.514;2023-12-20T01:01:44;101066.03;;;15.15;62.79
82951;BME280;72737;53.332;6.514;2023-12-20T01:04:10;101055.03;;;15.20;62.68
82951;BME280;72737;53.332;6.514;2023-12-20T01:06:35;101060.50;;;15.20;62.71
82951;BME280;72737;53.332;6.514;2023-12-20T01:09:01;101059.31;;;15.26;62.04
82951;BME280;72737;53.332;6.514;2023-12-20T01:11:26;101061.84;;;15.23;62.35
82951;BME280;72737;53.332;6.514;2023-12-20T01:13:52;101051.25;;;15.16;62.54
82951;BME280;72737;53.332;6.514;2023-12-20T01:16:17;101051.25;;;15.16;62.67
82951;BME280;72737;53.332;6.514;2023-12-20T01:18:42;101047.41;;;15.17;61.93
82951;BME280;72737;53.332;6.514;2023-12-20T01:21:08;101042.81;;;15.13;62.30
82951;BME280;72737;53.332;6.514;2023-12-20T01:23:33;101057.84;;;15.15;62.43
82951;BME280;72737;53.332;6.514;2023-12-20T01:25:59;101077.06;;;15.10;62.37
82951;BME280;72737;53.332;6.514;2023-12-20T01:28:27;101074.38;;;15.05;62.30
82951;BME280;72737;53.332;6.514;2023-12-20T01:30:53;101051.59;;;15.10;62.29
82951;BME280;72737;53.332;6.514;2023-12-20T01:33:18;101049.19;;;15.08;62.65
82951;BME280;72737;53.332;6.514;2023-12-20T01:35:44;101049.25;;;15.03;62.46
82951;BME280;72737;53.332;6.514;2023-12-20T01:38:09;101049.81;;;15.00;62.16
82951;BME280;72737;53.332;6.514;2023-12-20T01:40:35;101037.50;;;15.02;62.17
82951;BME280;72737;53.332;6.514;2023-12-20T01:43:18;101034.22;;;15.00;62.50
82951;BME280;72737;53.332;6.514;2023-12-20T01:45:43;101040.50;;;15.01;62.15
82951;BME280;72737;53.332;6.514;2023-12-20T01:48:09;101037.50;;;15.02;62.35
82951;BME280;72737;53.332;6.514;2023-12-20T01:50:36;101040.16;;;15.08;62.23
82951;BME280;72737;53.332;6.514;2023-12-20T01:53:07;101032.53;;;15.04;61.96
82951;BME280;72737;53.332;6.514;2023-12-20T01:55:35;101031.06;;;14.93;62.22
82951;BME280;72737;53.332;6.514;2023-12-20T01:58:02;101027.50;;;14.93;62.64
82951;BME280;72737;53.332;6.514;2023-12-20T02:00:29;101022.31;;;14.91;62.61
82951;BME280;72737;53.332;6.514;2023-12-20T02:02:55;101017.66;;;14.92;62.82
82951;BME280;72737;53.332;6.514;2023-12-20T02:05:21;101010.47;;;14.96;62.08
82951;BME280;72737;53.332;6.514;2023-12-20T02:07:47;101015.75;;;14.92;62.67
82951;BME280;72737;53.332;6.514;2023-12-20T02:10:13;101008.84;;;14.95;62.18
82951;BME280;72737;53.332;6.514;2023-12-20T02:12:38;101011.97;;;14.88;62.17
82951;BME280;72737;53.332;6.514;2023-12-20T02:15:04;100993.03;;;14.92;62.39
82951;BME280;72737;53.332;6.514;2023-12-20T02:17:31;101007.00;;;14.90;62.66
82951;BME280;72737;53.332;6.514;2023-12-20T02:19:57;101002.94;;;14.88;62.26
82951;BME280;72737;53.332;6.514;2023-12-20T02:22:22;101001.53;;;14.90;62.08
82951;BME280;72737;53.332;6.514;2023-12-20T02:24:47;101014.47;;;14.85;62.49
82951;BME280;72737;53.332;6.514;2023-12-20T02:27:14;101003.38;;;14.95;62.08
82951;BME280;72737;53.332;6.514;2023-12-20T02:29:40;100990.88;;;14.89;62.09
82951;BME280;72737;53.332;6.514;2023-12-20T02:32:06;100989.75;;;14.90;62.36
82951;BME280;72737;53.332;6.514;2023-12-20T02:34:32;100985.53;;;14.79;62.55
82951;BME280;72737;53.332;6.514;2023-12-20T02:36:57;100990.94;;;14.84;61.98
82951;BME280;72737;53.332;6.514;2023-12-20T02:39:22;100983.75;;;14.69;62.50
82951;BME280;72737;53.332;6.514;2023-12-20T02:41:48;100983.47;;;14.71;62.28
82951;BME280;72737;53.332;6.514;2023-12-20T02:44:14;100992.13;;;14.78;62.12
82951;BME280;72737;53.332;6.514;2023-12-20T02:46:39;100985.25;;;14.80;62.19
82951;BME280;72737;53.332;6.514;2023-12-20T02:49:06;100989.09;;;14.79;62.27
82951;BME280;72737;53.332;6.514;2023-12-20T02:51:31;100979.09;;;14.70;62.40
82951;BME280;72737;53.332;6.514;2023-12-20T02:53:56;100979.69;;;14.67;62.40
82951;BME280;72737;53.332;6.514;2023-12-20T02:56:22;100982.13;;;14.68;62.34
82951;BME280;72737;53.332;6.514;2023-12-20T02:58:47;100970.38;;;14.68;63.07
82951;BME280;72737;53.332;6.514;2023-12-20T03:01:12;100959.78;;;14.61;62.88
82951;BME280;72737;53.332;6.514;2023-12-20T03:03:38;100963.28;;;14.67;63.16
82951;BME280;72737;53.332;6.514;2023-12-20T03:06:03;100966.09;;;14.62;63.23
82951;BME280;72737;53.332;6.514;2023-12-20T03:08:29;100949.88;;;14.65;62.69
82951;BME280;72737;53.332;6.514;2023-12-20T03:10:54;100954.91;;;14.58;63.34
82951;BME280;72737;53.332;6.514;2023-12-20T03:13:19;100955.22;;;14.56;63.41
82951;BME280;72737;53.332;6.514;2023-12-20T03:15:45;100959.50;;;14.63;63.21
82951;BME280;72737;53.332;6.514;2023-12-20T03:18:11;100972.38;;;14.62;63.31
82951;BME280;72737;53.332;6.514;2023-12-20T03:20:37;100972.38;;;14.62;63.15
82951;BME280;72737;53.332;6.514;2023-12-20T03:23:03;100965.25;;;14.61;62.93
82951;BME280;72737;53.332;6.514;2023-12-20T03:25:28;100958.75;;;14.57;63.33
82951;BME280;72737;53.332;6.514;2023-12-20T03:27:53;100947.81;;;14.57;63.08
82951;BME280;72737;53.332;6.514;2023-12-20T03:30:19;100942.06;;;14.58;62.94
82951;BME280;72737;53.332;6.514;2023-12-20T03:32:45;100951.31;;;14.63;63.37
82951;BME280;72737;53.332;6.514;2023-12-20T03:35:11;100942.91;;;14.54;63.73
82951;BME280;72737;53.332;6.514;2023-12-20T03:37:36;100944.88;;;14.53;63.82
82951;BME280;72737;53.332;6.514;2023-12-20T03:40:02;100936.28;;;14.60;63.03
82951;BME280;72737;53.332;6.514;2023-12-20T03:42:28;100935.41;;;14.65;62.94
82951;BME280;72737;53.332;6.514;2023-12-20T03:44:53;100939.53;;;14.62;63.36
82951;BME280;72737;53.332;6.514;2023-12-20T03:47:19;100936.75;;;14.67;62.78
82951;BME280;72737;53.332;6.514;2023-12-20T03:49:44;100938.06;;;14.70;62.63
82951;BME280;72737;53.332;6.514;2023-12-20T03:52:10;100942.44;;;14.71;63.43
82951;BME280;72737;53.332;6.514;2023-12-20T03:54:36;100927.03;;;14.75;63.23
82951;BME280;72737;53.332;6.514;2023-12-20T03:57:02;100927.13;;;14.70;62.90
82951;BME280;72737;53.332;6.514;2023-12-20T03:59:27;100910.41;;;14.71;62.73
82951;BME280;72737;53.332;6.514;2023-12-20T04:01:52;100908.44;;;14.77;62.63
82951;BME280;72737;53.332;6.514;2023-12-20T04:04:18;100909.25;;;14.77;62.89
82951;BME280;72737;53.332;6.514;2023-12-20T04:06:44;100911.66;;;14.79;62.88
82951;BME280;72737;53.332;6.514;2023-12-20T04:09:10;100904.81;;;14.81;62.67
82951;BME280;72737;53.332;6.514;2023-12-20T04:11:36;100900.78;;;14.74;62.96
82951;BME280;72737;53.332;6.514;2023-12-20T04:14:02;100905.91;;;14.80;62.51
82951;BME280;72737;53.332;6.514;2023-12-20T04:16:27;100902.34;;;14.80;62.56
82951;BME280;72737;53.332;6.514;2023-12-20T04:18:52;100903.97;;;14.81;63.04
82951;BME280;72737;53.332;6.514;2023-12-20T04:21:18;100901.25;;;14.81;63.20
82951;BME280;72737;53.332;6.514;2023-12-20T04:23:43;100902.34;;;14.80;62.62
82951;BME280;72737;53.332;6.514;2023-12-20T04:26:09;100897.41;;;14.82;63.25
82951;BME280;72737;53.332;6.514;2023-12-20T04:28:34;100893.03;;;14.81;62.90
82951;BME280;72737;53.332;6.514;2023-12-20T04:31:00;100900.16;;;14.82;63.04
82951;BME280;72737;53.332;6.514;2023-12-20T04:33:25;100896.31;;;14.83;63.28
82951;BME280;72737;53.332;6.514;2023-12-20T04:35:51;100895.50;;;14.82;63.12
82951;BME280;72737;53.332;6.514;2023-12-20T04:38:16;100903.97;;;14.81;62.86
82951;BME280;72737;53.332;6.514;2023-12-20T04:40:42;100887.56;;;14.81;63.13
82951;BME280;72737;53.332;6.514;2023-12-20T04:43:07;100888.09;;;14.83;62.84
82951;BME280;72737;53.332;6.514;2023-12-20T04:45:34;100885.94;;;14.80;63.41
82951;BME280;72737;53.332;6.514;2023-12-20T04:47:59;100895.78;;;14.81;63.48
82951;BME280;72737;53.332;6.514;2023-12-20T04:50:25;100901.25;;;14.81;63.34
82951;BME280;72737;53.332;6.514;2023-12-20T04:52:50;100897.19;;;14.78;62.89
82951;BME280;72737;53.332;6.514;2023-12-20T04:55:16;100903.69;;;14.82;63.07
82951;BME280;72737;53.332;6.514;2023-12-20T04:57:41;100893.56;;;14.83;63.19
82951;BME280;72737;53.332;6.514;2023-12-20T05:00:08;100895.78;;;14.81;63.24
82951;BME280;72737;53.332;6.514;2023-12-20T05:02:35;100896.88;;;14.80;63.53
82951;BME280;72737;53.332;6.514;2023-12-20T05:05:00;100893.13;;;14.76;63.56
82951;BME280;72737;53.332;6.514;2023-12-20T05:07:26;100899.13;;;14.78;63.62
82951;BME280;72737;53.332;6.514;2023-12-20T05:09:51;100885.13;;;14.79;63.57
82951;BME280;72737;53.332;6.514;2023-12-20T05:12:17;100901.53;;;14.79;63.40
82951;BME280;72737;53.332;6.514;2023-12-20T05:14:42;100890.31;;;14.81;63.20
82951;BME280;72737;53.332;6.514;2023-12-20T05:17:07;100890.38;;;14.76;63.77
82951;BME280;72737;53.332;6.514;2023-12-20T05:19:33;100890.59;;;14.79;63.18
82951;BME280;72737;53.332;6.514;2023-12-20T05:22:03;100887.56;;;14.81;63.41
82951;BME280;72737;53.332;6.514;2023-12-20T05:24:29;100884.91;;;14.76;63.12
82951;BME280;72737;53.332;6.514;2023-12-20T05:26:54;100899.13;;;14.78;63.88
82951;BME280;72737;53.332;6.514;2023-12-20T05:29:20;100878.63;;;14.75;63.13
82951;BME280;72737;53.332;6.514;2023-12-20T05:31:45;100895.78;;;14.81;63.66
82951;BME280;72737;53.332;6.514;2023-12-20T05:34:11;100893.03;;;14.81;63.05
82951;BME280;72737;53.332;6.514;2023-12-20T05:36:37;100879.88;;;14.83;63.48
82951;BME280;72737;53.332;6.514;2023-12-20T05:39:03;100871.16;;;14.81;63.24
82951;BME280;72737;53.332;6.514;2023-12-20T05:41:30;100862.34;;;14.84;63.05
82951;BME280;72737;53.332;6.514;2023-12-20T05:43:56;100862.34;;;14.84;63.21
82951;BME280;72737;53.332;6.514;2023-12-20T05:46:23;100873.59;;;14.82;63.19
82951;BME280;72737;53.332;6.514;2023-12-20T05:48:49;100880.72;;;14.83;63.67
82951;BME280;72737;53.332;6.514;2023-12-20T05:51:14;100870.19;;;14.90;64.58
82951;BME280;72737;53.332;6.514;2023-12-20T05:53:39;100866.06;;;14.93;64.73
82951;BME280;72737;53.332;6.514;2023-12-20T05:56:05;100865.97;;;14.98;64.08
82951;BME280;72737;53.332;6.514;2023-12-20T05:58:32;100863.16;;;15.03;63.39
82951;BME280;72737;53.332;6.514;2023-12-20T06:00:58;100865.06;;;15.02;64.11
82951;BME280;72737;53.332;6.514;2023-12-20T06:03:23;100858.94;;;14.92;63.79
82951;BME280;72737;53.332;6.514;2023-12-20T06:05:48;100852.38;;;14.93;64.05
82951;BME280;72737;53.332;6.514;2023-12-20T06:08:14;100856.72;;;14.94;63.79
82951;BME280;72737;53.332;6.514;2023-12-20T06:10:39;100846.66;;;14.89;63.91
82951;BME280;72737;53.332;6.514;2023-12-20T06:13:05;100838.53;;;14.84;63.30
82951;BME280;72737;53.332;6.514;2023-12-20T06:15:34;100830.03;;;14.86;63.41
82951;BME280;72737;53.332;6.514;2023-12-20T06:18:00;100836.03;;;14.88;63.57
82951;BME280;72737;53.332;6.514;2023-12-20T06:20:26;100845.25;;;14.92;63.00
82951;BME280;72737;53.332;6.514;2023-12-20T06:22:51;100840.38;;;14.89;63.04
82951;BME280;72737;53.332;6.514;2023-12-20T06:25:17;100837.72;;;14.84;62.96
82951;BME280;72737;53.332;6.514;2023-12-20T06:27:42;100832.16;;;14.89;62.67
82951;BME280;72737;53.332;6.514;2023-12-20T06:30:08;100834.41;;;14.87;62.98
82951;BME280;72737;53.332;6.514;2023-12-20T06:32:36;100822.34;;;14.88;62.80
82951;BME280;72737;53.332;6.514;2023-12-20T06:35:04;100824.56;;;14.86;62.64
82951;BME280;72737;53.332;6.514;2023-12-20T06:37:30;100824.47;;;14.91;64.14
82951;BME280;72737;53.332;6.514;2023-12-20T06:39:56;100809.16;;;14.90;63.01
82951;BME280;72737;53.332;6.514;2023-12-20T06:42:22;100813.81;;;14.89;63.56
82951;BME280;72737;53.332;6.514;2023-12-20T06:44:47;100812.59;;;14.82;62.95
82951;BME280;72737;53.332;6.514;2023-12-20T06:47:13;100810.34;;;14.84;63.16
82951;BME280;72737;53.332;6.514;2023-12-20T06:49:39;100811.41;;;14.88;63.51
82951;BME280;72737;53.332;6.514;2023-12-20T06:52:05;100803.13;;;14.93;63.29
82951;BME280;72737;53.332;6.514;2023-12-20T06:54:31;100802.41;;;15.01;64.12
82951;BME280;72737;53.332;6.514;2023-12-20T06:56:57;100799.69;;;15.01;63.95
82951;BME280;72737;53.332;6.514;2023-12-20T06:59:22;100803.53;;;15.00;63.67
82951;BME280;72737;53.332;6.514;2023-12-20T07:01:48;100800.28;;;14.98;63.71
82951;BME280;72737;53.332;6.514;2023-12-20T07:04:14;100798.22;;;14.90;63.54
82951;BME280;72737;53.332;6.514;2023-12-20T07:06:39;100788.47;;;14.84;63.56
82951;BME280;72737;53.332;6.514;2023-12-20T07:09:04;100792.63;;;14.81;63.92
82951;BME280;72737;53.332;6.514;2023-12-20T07:11:30;100792.50;;;14.73;63.87
82951;BME280;72737;53.332;6.514;2023-12-20T07:13:55;100784.88;;;14.70;64.08
82951;BME280;72737;53.332;6.514;2023-12-20T07:16:21;100794.72;;;14.71;63.84
82951;BME280;72737;53.332;6.514;2023-12-20T07:18:47;100792.34;;;14.64;64.17
82951;BME280;72737;53.332;6.514;2023-12-20T07:21:13;100789.13;;;14.62;63.75
82951;BME280;72737;53.332;6.514;2023-12-20T07:23:38;100796.94;;;14.69;63.95
82951;BME280;72737;53.332;6.514;2023-12-20T07:26:04;100806.84;;;14.65;63.85
82951;BME280;72737;53.332;6.514;2023-12-20T07:28:29;100795.69;;;14.61;63.38
82951;BME280;72737;53.332;6.514;2023-12-20T07:30:55;100792.75;;;14.57;63.47
82951;BME280;72737;53.332;6.514;2023-12-20T07:33:20;100805.53;;;14.62;63.43
82951;BME280;72737;53.332;6.514;2023-12-20T07:35:47;100796.78;;;14.60;63.11
82951;BME280;72737;53.332;6.514;2023-12-20T07:38:13;100801.31;;;14.51;63.58
82951;BME280;72737;53.332;6.514;2023-12-20T07:40:38;100801.03;;;14.52;63.34
82951;BME280;72737;53.332;6.514;2023-12-20T07:43:04;100798.31;;;14.52;63.65
82951;BME280;72737;53.332;6.514;2023-12-20T07:45:29;100793.00;;;14.42;63.69
82951;BME280;72737;53.332;6.514;2023-12-20T07:47:55;100804.88;;;14.51;63.04
82951;BME280;72737;53.332;6.514;2023-12-20T07:50:20;100805.97;;;14.50;63.50
82951;BME280;72737;53.332;6.514;2023-12-20T07:52:46;100805.91;;;14.55;63.21
82951;BME280;72737;53.332;6.514;2023-12-20T07:55:11;100798.88;;;14.49;63.32
82951;BME280;72737;53.332;6.514;2023-12-20T07:57:36;100794.53;;;14.48;63.02
82951;BME280;72737;53.332;6.514;2023-12-20T08:00:02;100803.09;;;14.42;63.58
82951;BME280;72737;53.332;6.514;2023-12-20T08:02:29;100791.97;;;14.38;63.86
82951;BME280;72737;53.332;6.514;2023-12-20T08:04:54;100804.50;;;14.39;63.11
82951;BME280;72737;53.332;6.514;2023-12-20T08:07:19;100800.69;;;14.35;63.41
82951;BME280;72737;53.332;6.514;2023-12-20T08:09:45;100802.06;;;14.38;63.53
82951;BME280;72737;53.332;6.514;2023-12-20T08:12:10;100799.06;;;14.34;63.64
82951;BME280;72737;53.332;6.514;2023-12-20T08:14:36;100815.03;;;14.27;63.25
82951;BME280;72737;53.332;6.514;2023-12-20T08:17:02;100825.09;;;14.32;63.68
82951;BME280;72737;53.332;6.514;2023-12-20T08:19:27;100848.84;;;14.36;63.03
82951;BME280;72737;53.332;6.514;2023-12-20T08:21:53;100883.38;;;14.27;63.32
82951;BME280;72737;53.332;6.514;2023-12-20T08:24:18;100888.03;;;14.27;63.40
82951;BME280;72737;53.332;6.514;2023-12-20T08:26:44;100880.78;;;14.36;63.16
82951;BME280;72737;53.332;6.514;2023-12-20T08:29:13;100886.56;;;14.34;62.79
82951;BME280;72737;53.332;6.514;2023-12-20T08:31:38;100877.31;;;14.30;62.72
82951;BME280;72737;53.332;6.514;2023-12-20T08:34:04;100874.31;;;14.32;63.06
82951;BME280;72737;53.332;6.514;2023-12-20T08:36:29;100871.84;;;14.30;63.36
82951;BME280;72737;53.332;6.514;2023-12-20T08:38:55;100883.28;;;14.37;62.62
82951;BME280;72737;53.332;6.514;2023-12-20T08:41:20;100894.75;;;14.34;62.98
82951;BME280;72737;53.332;6.514;2023-12-20T08:43:46;100903.22;;;14.38;63.07
82951;BME280;72737;53.332;6.514;2023-12-20T08:46:14;100901.41;;;14.28;63.14
82951;BME280;72737;53.332;6.514;2023-12-20T08:48:39;100899.72;;;14.32;63.09
82951;BME280;72737;53.332;6.514;2023-12-20T08:51:05;100883.88;;;14.29;62.92
82951;BME280;72737;53.332;6.514;2023-12-20T08:53:33;100891.53;;;14.32;62.52
82951;BME280;72737;53.332;6.514;2023-12-20T08:55:59;100885.00;;;14.28;63.26
82951;BME280;72737;53.332;6.514;2023-12-20T08:58:27;100893.72;;;14.30;63.06
82951;BME280;72737;53.332;6.514;2023-12-20T09:00:53;100908.56;;;14.24;62.36
82951;BME280;72737;53.332;6.514;2023-12-20T09:03:18;100916.75;;;14.24;63.21
82951;BME280;72737;53.332;6.514;2023-12-20T09:05:43;100912.09;;;14.25;62.45
82951;BME280;72737;53.332;6.514;2023-12-20T09:08:09;100889.72;;;14.23;62.70
82951;BME280;72737;53.332;6.514;2023-12-20T09:10:36;100896.00;;;14.23;62.78
82951;BME280;72737;53.332;6.514;2023-12-20T09:13:02;100891.06;;;14.25;62.42
82951;BME280;72737;53.332;6.514;2023-12-20T09:15:28;100891.66;;;14.22;62.37
82951;BME280;72737;53.332;6.514;2023-12-20T09:17:55;100888.25;;;14.30;62.73
82951;BME280;72737;53.332;6.514;2023-12-20T09:20:21;100903.03;;;14.29;62.21
82951;BME280;72737;53.332;6.514;2023-12-20T09:22:48;100908.88;;;14.23;63.02
82951;BME280;72737;53.332;6.514;2023-12-20T09:25:14;100915.72;;;14.20;62.90
82951;BME280;72737;53.332;6.514;2023-12-20T09:27:41;100902.66;;;14.17;62.83
82951;BME280;72737;53.332;6.514;2023-12-20T09:30:07;100905.38;;;14.17;63.00
82951;BME280;72737;53.332;6.514;2023-12-20T09:32:32;100907.44;;;14.25;62.40
82951;BME280;72737;53.332;6.514;2023-12-20T09:34:58;100912.69;;;14.22;62.53
82951;BME280;72737;53.332;6.514;2023-12-20T09:37:26;100920.84;;;14.27;62.54
82951;BME280;72737;53.332;6.514;2023-12-20T09:39:52;100941.06;;;14.26;62.59
82951;BME280;72737;53.332;6.514;2023-12-20T09:42:24;100939.16;;;14.26;62.86
82951;BME280;72737;53.332;6.514;2023-12-20T09:44:54;100926.09;;;14.23;63.14
82951;BME280;72737;53.332;6.514;2023-12-20T09:47:23;100931.81;;;14.22;62.82
82951;BME280;72737;53.332;6.514;2023-12-20T09:49:50;100934.56;;;14.22;62.62
82951;BME280;72737;53.332;6.514;2023-12-20T09:52:18;100925.53;;;14.21;62.66
82951;BME280;72737;53.332;6.514;2023-12-20T09:54:44;100940.84;;;14.22;62.72
82951;BME280;72737;53.332;6.514;2023-12-20T09:57:10;100932.09;;;14.20;63.18
82951;BME280;72737;53.332;6.514;2023-12-20T09:59:36;100938.63;;;14.24;63.24
82951;BME280;72737;53.332;6.514;2023-12-20T10:02:01;100940.78;;;14.27;62.63
82951;BME280;72737;53.332;6.514;2023-12-20T10:04:32;100933.69;;;14.26;62.83
82951;BME280;72737;53.332;6.514;2023-12-20T10:07:02;100947.94;;;14.23;62.85
82951;BME280;72737;53.332;6.514;2023-12-20T10:09:31;100948.28;;;14.16;63.51
82951;BME280;72737;53.332;6.514;2023-12-20T10:11:57;100954.72;;;14.26;62.73
82951;BME280;72737;53.332;6.514;2023-12-20T10:14:23;100953.34;;;14.28;63.11
82951;BME280;72737;53.332;6.514;2023-12-20T10:16:48;100951.78;;;14.22;62.88
82951;BME280;72737;53.332;6.514;2023-12-20T10:19:16;100942.22;;;14.19;63.02
82951;BME280;72737;53.332;6.514;2023-12-20T10:21:42;100957.75;;;14.24;63.15
82951;BME280;72737;53.332;6.514;2023-12-20T10:24:08;100942.81;;;14.16;63.06
82951;BME280;72737;53.332;6.514;2023-12-20T10:26:34;100944.09;;;14.24;63.41
82951;BME280;72737;53.332;6.514;2023-12-20T10:29:00;100945.72;;;14.25;63.02
82951;BME280;72737;53.332;6.514;2023-12-20T10:31:32;100931.22;;;14.25;62.86
82951;BME280;72737;53.332;6.514;2023-12-20T10:33:58;100934.09;;;14.14;63.68
82951;BME280;72737;53.332;6.514;2023-12-20T10:36:29;100931.59;;;14.18;62.99
82951;BME280;72737;53.332;6.514;2023-12-20T10:38:55;100922.28;;;14.19;63.39
82951;BME280;72737;53.332;6.514;2023-12-20T10:41:28;100930.13;;;14.26;62.79
82951;BME280;72737;53.332;6.514;2023-12-20T10:44:04;100911.06;;;14.21;63.43
82951;BME280;72737;53.332;6.514;2023-12-20T10:46:34;100914.34;;;14.23;62.79
82951;BME280;72737;53.332;6.514;2023-12-20T10:49:02;100902.81;;;14.26;62.86
82951;BME280;72737;53.332;6.514;2023-12-20T10:51:27;100905.31;;;14.22;63.44
82951;BME280;72737;53.332;6.514;2023-12-20T10:53:55;100893.84;;;14.20;63.02
82951;BME280;72737;53.332;6.514;2023-12-20T10:56:21;100895.47;;;14.21;63.11
82951;BME280;72737;53.332;6.514;2023-12-20T10:58:49;100900.94;;;14.21;63.18
82951;BME280;72737;53.332;6.514;2023-12-20T11:01:16;100890.22;;;14.25;63.03
82951;BME280;72737;53.332;6.514;2023-12-20T11:03:49;100895.41;;;14.26;63.57
82951;BME280;72737;53.332;6.514;2023-12-20T11:09:16;100901.97;;;14.25;63.00
82951;BME280;72737;53.332;6.514;2023-12-20T11:12:18;100896.00;;;14.47;63.47
82951;BME280;72737;53.332;6.514;2023-12-20T11:14:53;100907.69;;;14.52;63.35
82951;BME280;72737;53.332;6.514;2023-12-20T11:17:22;100895.94;;;14.52;62.77
82951;BME280;72737;53.332;6.514;2023-12-20T11:22:25;100890.00;;;14.45;62.92
82951;BME280;72737;53.332;6.514;2023-12-20T11:24:52;100887.25;;;14.45;63.29
82951;BME280;72737;53.332;6.514;2023-12-20T11:27:21;100882.41;;;14.42;62.98
82951;BME280;72737;53.332;6.514;2023-12-20T11:29:55;100877.50;;;14.39;63.67
82951;BME280;72737;53.332;6.514;2023-12-20T11:34:58;100878.84;;;14.41;63.50
82951;BME280;72737;53.332;6.514;2023-12-20T11:37:35;100876.94;;;14.42;63.03
82951;BME280;72737;53.332;6.514;2023-12-20T11:42:42;100875.91;;;14.38;63.26
82951;BME280;72737;53.332;6.514;2023-12-20T11:45:12;100868.19;;;14.40;63.68
82951;BME280;72737;53.332;6.514;2023-12-20T11:47:40;100869.88;;;14.36;63.26
82951;BME280;72737;53.332;6.514;2023-12-20T11:50:07;100863.19;;;14.47;63.23
82951;BME280;72737;53.332;6.514;2023-12-20T11:52:33;100870.34;;;14.43;62.83
82951;BME280;72737;53.332;6.514;2023-12-20T11:55:04;100867.97;;;14.36;62.96
82951;BME280;72737;53.332;6.514;2023-12-20T11:57:30;100863.03;;;14.38;62.90
82951;BME280;72737;53.332;6.514;2023-12-20T11:59:56;100851.31;;;14.33;63.13
82951;BME280;72737;53.332;6.514;2023-12-20T12:02:21;100855.97;;;14.32;63.01
82951;BME280;72737;53.332;6.514;2023-12-20T12:04:49;100854.06;;;14.33;63.60
82951;BME280;72737;53.332;6.514;2023-12-20T12:07:16;100840.16;;;14.29;63.71
82951;BME280;72737;53.332;6.514;2023-12-20T12:09:41;100833.06;;;14.28;63.06
82951;BME280;72737;53.332;6.514;2023-12-20T12:12:08;100827.00;;;14.31;63.40
82951;BME280;72737;53.332;6.514;2023-12-20T12:14:33;100830.34;;;14.28;63.05
82951;BME280;72737;53.332;6.514;2023-12-20T12:17:00;100835.22;;;14.31;63.37
82951;BME280;72737;53.332;6.514;2023-12-20T12:19:26;100839.88;;;14.31;63.51
82951;BME280;72737;53.332;6.514;2023-12-20T12:22:04;100834.41;;;14.31;63.02
82951;BME280;72737;53.332;6.514;2023-12-20T12:24:35;100842.66;;;14.26;63.15
82951;BME280;72737;53.332;6.514;2023-12-20T12:27:01;100845.81;;;14.38;62.81
82951;BME280;72737;53.332;6.514;2023-12-20T12:29:27;100851.00;;;14.34;62.97
82951;BME280;72737;53.332;6.514;2023-12-20T12:31:52;100843.59;;;14.40;63.01
82951;BME280;72737;53.332;6.514;2023-12-20T12:34:18;100835.44;;;14.35;63.14
82951;BME280;72737;53.332;6.514;2023-12-20T12:36:44;100831.59;;;14.36;63.41
82951;BME280;72737;53.332;6.514;2023-12-20T12:39:14;100839.03;;;14.30;63.33
82951;BME280;72737;53.332;6.514;2023-12-20T12:41:43;100833.56;;;14.30;62.85
82951;BME280;72737;53.332;6.514;2023-12-20T12:44:09;100828.63;;;14.32;63.24
82951;BME280;72737;53.332;6.514;2023-12-20T12:46:34;100826.47;;;14.29;63.01
82951;BME280;72737;53.332;6.514;2023-12-20T12:49:00;100811.72;;;14.30;63.06
82951;BME280;72737;53.332;6.514;2023-12-20T12:51:25;100822.66;;;14.30;63.28
82951;BME280;72737;53.332;6.514;2023-12-20T12:53:51;100824.00;;;14.33;63.25
82951;BME280;72737;53.332;6.514;2023-12-20T12:56:16;100833.56;;;14.30;63.02